Time;durP1;ratioP1;P1;durP2;ratioP2;P2;SDS_P1;SDS_P2;PMS_P1;PMS_P2;Temp;Humidity;BMP_temperature;BMP_pressure;BME280_temperature;BME280_humidity;BME280_pressure;Samples;Min_cycle;Max_cycle;Signal;HPM_P1;HPM_P2
2023/07/01 00:01:52;;;;;;;3.40;3.10;;;25.40;67.60;;;;;;222342;1261;23412;-56
2023/07/01 00:06:56;;;;;;;3.80;3.50;;;25.40;67.10;;;;;;222320;1263;22743;-53
2023/07/01 00:12:00;;;;;;;4.60;3.20;;;25.40;66.90;;;;;;222450;1263;25370;-55
2023/07/01 00:17:05;;;;;;;3.10;2.90;;;25.40;66.80;;;;;;222331;1260;22616;-54
2023/07/01 00:22:09;;;;;;;3.90;2.60;;;25.40;67.20;;;;;;222164;1261;22529;-55
2023/07/01 00:27:13;;;;;;;3.60;3.40;;;25.40;67.00;;;;;;222608;1261;22630;-54
2023/07/01 00:32:17;;;;;;;3.60;3.40;;;25.30;67.20;;;;;;222306;1261;22512;-55
2023/07/01 00:37:22;;;;;;;5.20;2.90;;;25.30;67.30;;;;;;222107;1261;22515;-54
2023/07/01 00:42:27;;;;;;;4.30;2.90;;;25.40;66.70;;;;;;222617;1254;22612;-55
2023/07/01 00:47:31;;;;;;;3.30;3.00;;;25.40;66.80;;;;;;222231;1263;24162;-54
2023/07/01 00:52:37;;;;;;;3.30;3.00;;;25.40;66.80;;;;;;222566;1264;22508;-54
2023/07/01 00:57:42;;;;;;;3.10;2.80;;;25.40;66.70;;;;;;222492;1254;24348;-56
2023/07/01 01:03:30;;;;;;;3.20;2.90;;;25.30;66.80;;;;;;222433;1263;24237;-55
2023/07/01 01:08:48;;;;;;;3.00;2.80;;;25.30;66.90;;;;;;222494;1263;23879;-56
2023/07/01 01:13:54;;;;;;;3.90;3.40;;;25.40;66.80;;;;;;222324;1259;25550;-55
2023/07/01 01:19:00;;;;;;;3.30;3.10;;;25.30;66.60;;;;;;222291;1257;22687;-55
2023/07/01 01:24:07;;;;;;;2.70;2.50;;;25.20;67.00;;;;;;222724;1254;22781;-56
2023/07/01 01:29:11;;;;;;;2.60;2.40;;;25.20;67.10;;;;;;222557;1260;26509;-55
2023/07/01 01:34:15;;;;;;;4.30;3.10;;;25.20;67.00;;;;;;222216;1266;22512;-56
2023/07/01 01:39:25;;;;;;;3.00;2.80;;;25.30;66.90;;;;;;222264;1265;22551;-54
2023/07/01 01:44:37;;;;;;;3.10;2.90;;;25.20;67.30;;;;;;222319;1256;25404;-54
2023/07/01 01:49:43;;;;;;;3.30;3.10;;;25.20;67.00;;;;;;222694;1253;24212;-58
2023/07/01 01:54:50;;;;;;;2.70;2.50;;;25.20;67.70;;;;;;222469;1254;24036;-55
2023/07/01 01:59:54;;;;;;;2.90;2.70;;;25.20;66.90;;;;;;222423;1245;24388;-54
2023/07/01 02:04:59;;;;;;;2.80;2.60;;;25.30;66.80;;;;;;222483;1244;22526;-57
2023/07/01 02:10:05;;;;;;;3.10;2.80;;;25.20;67.00;;;;;;222640;1263;24244;-55
2023/07/01 02:15:10;;;;;;;2.80;2.60;;;25.20;66.80;;;;;;222188;1260;352377;-54
2023/07/01 02:20:17;;;;;;;2.80;2.60;;;25.20;66.70;;;;;;222468;1264;25453;-56
2023/07/01 02:25:22;;;;;;;3.80;3.40;;;25.30;66.70;;;;;;222548;1264;24303;-54
2023/07/01 02:30:26;;;;;;;3.00;2.40;;;25.30;66.70;;;;;;222532;1263;22498;-54
2023/07/01 02:35:31;;;;;;;2.60;2.40;;;25.20;66.70;;;;;;222379;1260;22512;-58
2023/07/01 02:40:35;;;;;;;3.40;2.90;;;25.30;66.50;;;;;;222785;1264;24183;-56
2023/07/01 02:45:40;;;;;;;2.90;2.70;;;25.20;66.80;;;;;;222606;1260;22599;-57
2023/07/01 02:50:45;;;;;;;3.20;2.40;;;25.20;66.70;;;;;;222552;1264;25786;-56
2023/07/01 02:55:49;;;;;;;2.90;2.70;;;25.20;66.70;;;;;;222457;1264;25274;-55
2023/07/01 03:00:53;;;;;;;3.10;2.80;;;25.20;66.80;;;;;;222438;1254;24307;-55
2023/07/01 03:05:57;;;;;;;3.80;2.80;;;25.10;66.70;;;;;;222402;1266;22515;-54
2023/07/01 03:11:03;;;;;;;2.80;2.60;;;25.10;66.80;;;;;;222283;1268;22526;-55
2023/07/01 03:16:07;;;;;;;3.60;2.60;;;25.10;66.90;;;;;;222508;1264;25450;-54
2023/07/01 03:21:12;;;;;;;2.80;2.70;;;25.10;66.60;;;;;;222862;1254;25248;-54
2023/07/01 03:26:16;;;;;;;2.80;2.60;;;25.20;66.60;;;;;;222453;1263;22641;-56
2023/07/01 03:31:21;;;;;;;3.00;2.80;;;25.10;66.50;;;;;;222491;1260;23251;-54
2023/07/01 03:36:26;;;;;;;3.20;2.40;;;25.20;66.50;;;;;;222593;1267;22557;-55
2023/07/01 03:41:30;;;;;;;2.90;2.60;;;25.10;66.50;;;;;;222312;1258;22518;-55
2023/07/01 03:46:34;;;;;;;2.70;2.50;;;25.10;66.90;;;;;;222461;1264;23422;-54
2023/07/01 03:51:38;;;;;;;2.70;2.60;;;25.10;66.60;;;;;;222385;1247;25485;-57
2023/07/01 03:56:42;;;;;;;3.70;2.80;;;25.10;66.50;;;;;;222534;1255;22630;-53
2023/07/01 04:01:47;;;;;;;3.10;2.80;;;25.10;66.60;;;;;;222380;1267;22505;-55
2023/07/01 04:06:54;;;;;;;2.60;2.40;;;25.10;66.50;;;;;;222394;1268;22524;-56
2023/07/01 04:12:00;;;;;;;3.10;2.80;;;25.10;66.50;;;;;;222799;1261;22524;-54
2023/07/01 04:17:05;;;;;;;2.90;2.70;;;25.10;66.30;;;;;;222535;1254;22605;-56
2023/07/01 04:22:09;;;;;;;4.90;2.60;;;25.10;66.50;;;;;;222469;1261;22508;-53
2023/07/01 04:27:13;;;;;;;2.50;2.40;;;25.10;66.40;;;;;;222416;1261;25261;-54
2023/07/01 04:32:17;;;;;;;2.50;2.40;;;25.10;66.30;;;;;;222372;1254;23888;-55
2023/07/01 04:37:22;;;;;;;3.10;2.90;;;25.10;66.20;;;;;;222067;1260;22520;-55
2023/07/01 04:42:26;;;;;;;2.90;2.70;;;25.10;66.40;;;;;;222421;1254;22780;-53
2023/07/01 04:47:30;;;;;;;3.10;2.90;;;25.00;66.60;;;;;;222365;1254;22515;-56
2023/07/01 04:52:34;;;;;;;2.70;2.40;;;25.10;66.10;;;;;;222355;1260;24183;-54
2023/07/01 04:57:38;;;;;;;3.80;2.70;;;25.10;66.40;;;;;;222469;1261;25934;-56
2023/07/01 05:02:42;;;;;;;2.50;2.40;;;25.10;66.40;;;;;;222125;1264;22502;-55
2023/07/01 05:07:47;;;;;;;3.00;2.70;;;25.10;66.50;;;;;;221989;1257;25248;-56
2023/07/01 05:12:51;;;;;;;3.60;3.00;;;25.10;66.60;;;;;;222247;1264;23447;-56
2023/07/01 05:17:56;;;;;;;3.00;2.70;;;25.10;66.50;;;;;;222471;1254;22585;-56
2023/07/01 05:23:00;;;;;;;3.00;2.80;;;25.00;66.50;;;;;;222274;1264;22646;-56
2023/07/01 05:28:04;;;;;;;2.90;2.60;;;25.00;66.60;;;;;;222470;1264;22508;-55
2023/07/01 05:33:10;;;;;;;2.50;2.40;;;25.10;66.50;;;;;;222621;1263;24228;-54
2023/07/01 05:38:15;;;;;;;3.00;2.80;;;25.10;66.30;;;;;;222230;1264;25214;-54
2023/07/01 05:43:19;;;;;;;3.00;2.80;;;25.20;66.20;;;;;;222082;1263;22517;-54
2023/07/01 05:48:23;;;;;;;3.40;3.10;;;25.10;66.30;;;;;;222066;1254;22522;-56
2023/07/01 05:53:27;;;;;;;3.10;2.90;;;25.10;66.20;;;;;;222148;1269;22508;-55
2023/07/01 05:58:32;;;;;;;3.30;2.90;;;25.10;66.50;;;;;;222099;1259;23882;-56
2023/07/01 06:03:35;;;;;;;3.00;2.90;;;25.10;66.50;;;;;;222207;1266;25103;-55
2023/07/01 06:08:42;;;;;;;2.90;2.70;;;25.10;66.70;;;;;;222423;1264;25311;-57
2023/07/01 06:13:47;;;;;;;2.90;2.70;;;25.10;66.10;;;;;;222288;1262;22552;-55
2023/07/01 06:18:51;;;;;;;2.90;2.70;;;25.20;66.20;;;;;;222380;1266;23625;-56
2023/07/01 06:23:56;;;;;;;3.60;3.00;;;25.20;66.10;;;;;;222152;1254;22528;-53
2023/07/01 06:29:00;;;;;;;3.40;3.20;;;25.10;65.80;;;;;;222340;1253;25393;-58
2023/07/01 06:34:12;;;;;;;3.40;3.20;;;25.10;66.30;;;;;;222635;1263;24448;-56
2023/07/01 06:39:16;;;;;;;3.40;3.10;;;25.10;66.50;;;;;;222374;1263;25329;-55
2023/07/01 06:44:22;;;;;;;3.70;3.40;;;25.10;66.20;;;;;;222345;1267;23931;-54
2023/07/01 06:49:26;;;;;;;3.20;3.00;;;25.10;66.20;;;;;;222207;1254;24212;-54
2023/07/01 06:54:30;;;;;;;3.00;2.90;;;25.20;66.10;;;;;;222412;1263;22520;-58
2023/07/01 06:59:34;;;;;;;3.40;3.20;;;25.10;66.40;;;;;;222322;1253;23126;-56
2023/07/01 07:04:38;;;;;;;3.00;2.80;;;25.10;66.00;;;;;;222440;1263;22564;-56
2023/07/01 07:09:43;;;;;;;4.60;3.30;;;25.20;66.00;;;;;;222430;1251;24636;-56
2023/07/01 07:14:47;;;;;;;8.40;3.40;;;25.20;66.00;;;;;;222432;1254;24096;-57
2023/07/01 07:19:55;;;;;;;3.30;3.00;;;25.10;66.60;;;;;;222249;1253;26000;-55
2023/07/01 07:24:59;;;;;;;4.50;3.40;;;25.20;66.10;;;;;;222836;1260;24199;-55
2023/07/01 07:30:08;;;;;;;8.80;3.30;;;25.30;66.70;;;;;;222510;1263;22522;-53
2023/07/01 07:35:12;;;;;;;3.80;3.50;;;25.20;66.30;;;;;;222527;1253;22557;-55
2023/07/01 07:40:17;;;;;;;3.70;3.50;;;25.20;66.30;;;;;;222614;1253;24251;-53
2023/07/01 07:45:22;;;;;;;5.50;4.40;;;25.20;66.50;;;;;;222562;1260;22782;-52
2023/07/01 07:50:26;;;;;;;14.10;3.90;;;25.20;66.60;;;;;;222595;1263;23874;-53
2023/07/01 07:55:33;;;;;;;12.10;4.30;;;25.30;66.90;;;;;;222431;1257;22786;-54
2023/07/01 08:00:38;;;;;;;10.30;6.90;;;25.20;66.80;;;;;;222363;1256;24634;-53
2023/07/01 08:05:42;;;;;;;7.40;6.70;;;25.20;69.00;;;;;;222493;1263;22676;-55
2023/07/01 08:10:47;;;;;;;10.50;7.20;;;25.30;68.10;;;;;;222759;1260;22973;-52
2023/07/01 08:15:52;;;;;;;7.70;6.70;;;25.30;68.00;;;;;;222199;1259;24378;-53
2023/07/01 08:20:56;;;;;;;11.30;6.60;;;25.40;67.50;;;;;;222352;1267;25450;-55
2023/07/01 08:26:00;;;;;;;8.90;8.00;;;25.20;67.40;;;;;;222298;1253;25103;-55
2023/07/01 08:31:05;;;;;;;10.00;9.20;;;25.20;67.30;;;;;;222501;1264;22522;-55
2023/07/01 08:36:10;;;;;;;11.20;9.40;;;25.20;67.10;;;;;;222302;1254;25225;-54
2023/07/01 08:41:16;;;;;;;11.70;10.20;;;25.20;67.50;;;;;;222388;1253;24340;-55
2023/07/01 08:46:22;;;;;;;13.20;9.80;;;25.10;67.10;;;;;;222325;1266;25456;-54
2023/07/01 08:51:29;;;;;;;15.40;10.10;;;25.10;67.30;;;;;;222831;1263;24382;-55
2023/07/01 08:56:33;;;;;;;19.80;11.60;;;25.10;66.90;;;;;;222551;1260;25313;-52
2023/07/01 09:01:39;;;;;;;12.20;10.40;;;25.10;67.10;;;;;;222128;1264;25156;-54
2023/07/01 09:06:43;;;;;;;11.30;10.30;;;25.30;67.10;;;;;;222610;1253;25446;-54
2023/07/01 09:11:47;;;;;;;11.20;10.10;;;25.40;66.80;;;;;;222384;1260;22505;-53
2023/07/01 09:16:52;;;;;;;11.40;10.20;;;25.40;66.70;;;;;;222005;1258;22510;-53
2023/07/01 09:22:08;;;;;;;12.10;10.90;;;25.40;66.30;;;;;;222636;1264;22508;-54
2023/07/01 09:27:12;;;;;;;12.00;10.80;;;25.40;66.20;;;;;;222232;1260;24242;-48
2023/07/01 09:32:31;;;;;;;12.80;11.00;;;25.20;66.10;;;;;;222540;1266;22525;-50
2023/07/01 09:37:35;;;;;;;15.50;11.50;;;25.30;66.80;;;;;;222336;1250;22621;-51
2023/07/01 09:42:50;;;;;;;23.50;11.90;;;25.20;66.30;;;;;;222424;1253;22505;-54
2023/07/01 09:47:56;;;;;;;14.10;11.90;;;25.30;66.70;;;;;;222459;1253;23737;-52
2023/07/01 09:53:00;;;;;;;16.10;13.10;;;25.30;66.10;;;;;;222547;1254;22619;-48
2023/07/01 09:58:04;;;;;;;18.10;11.80;;;25.20;66.20;;;;;;222432;1253;22536;-49
2023/07/01 10:03:09;;;;;;;14.20;12.50;;;25.10;66.10;;;;;;222498;1253;22504;-48
2023/07/01 10:08:13;;;;;;;15.00;13.30;;;25.10;65.60;;;;;;228906;1263;24183;-51
2023/07/01 10:13:17;;;;;;;15.40;13.00;;;24.90;65.60;;;;;;225684;1260;24182;-49
2023/07/01 10:18:23;;;;;;;14.10;12.40;;;25.10;65.40;;;;;;222208;1252;24174;-51
2023/07/01 10:23:45;;;;;;;15.20;13.30;;;25.00;65.30;;;;;;222352;1254;24307;-49
2023/07/01 10:28:49;;;;;;;15.80;13.70;;;25.00;65.30;;;;;;222403;1260;22623;-48
2023/07/01 10:33:54;;;;;;;16.50;14.70;;;25.00;65.90;;;;;;222512;1257;25596;-51
2023/07/01 10:39:31;;;;;;;15.50;13.70;;;25.00;67.00;;;;;;222637;1268;24576;-52
2023/07/01 10:44:35;;;;;;;13.20;11.90;;;24.90;66.80;;;;;;222797;1260;25616;-48
2023/07/01 10:49:59;;;;;;;12.60;11.50;;;24.80;66.80;;;;;;222348;1260;24339;-52
2023/07/01 10:55:43;;;;;;;13.40;12.00;;;24.90;66.30;;;;;;222473;1262;22634;-53
2023/07/01 11:00:53;;;;;;;13.90;12.00;;;24.90;66.00;;;;;;222439;1264;25432;-53
2023/07/01 11:05:58;;;;;;;12.70;11.40;;;24.80;65.70;;;;;;222401;1263;25208;-52
2023/07/01 11:11:03;;;;;;;14.90;11.90;;;24.70;66.10;;;;;;222501;1244;24212;-47
2023/07/01 11:16:10;;;;;;;13.60;12.30;;;24.70;66.30;;;;;;222536;1268;25389;-51
2023/07/01 11:21:20;;;;;;;15.80;14.20;;;24.80;66.70;;;;;;222644;1260;22700;-49
2023/07/01 11:26:29;;;;;;;16.60;14.50;;;24.70;66.80;;;;;;222906;1268;24748;-49
2023/07/01 11:31:36;;;;;;;15.70;13.30;;;24.70;66.30;;;;;;222460;1260;25525;-48
2023/07/01 11:36:45;;;;;;;15.70;13.30;;;24.70;66.30;;;;;;222695;1257;22518;-50
2023/07/01 11:42:00;;;;;;;14.70;13.20;;;24.70;66.60;;;;;;222678;1266;22510;-51
2023/07/01 11:47:13;;;;;;;14.90;13.30;;;24.80;66.40;;;;;;222468;1267;22563;-53
2023/07/01 11:52:25;;;;;;;13.80;12.30;;;24.60;66.30;;;;;;222222;1257;22567;-51
2023/07/01 11:57:32;;;;;;;13.50;11.90;;;24.70;65.20;;;;;;222461;1264;22520;-51
2023/07/01 12:02:36;;;;;;;14.00;12.60;;;24.70;65.90;;;;;;222491;1247;22831;-51
2023/07/01 12:07:57;;;;;;;14.70;13.30;;;24.70;65.90;;;;;;222493;1260;22603;-50
2023/07/01 12:13:01;;;;;;;16.40;12.90;;;24.70;66.50;;;;;;222553;1254;22486;-49
2023/07/01 12:18:27;;;;;;;14.30;12.20;;;24.80;65.50;;;;;;222431;1260;22726;-50
2023/07/01 12:23:44;;;;;;;16.60;12.70;;;24.90;65.50;;;;;;222520;1264;25284;-51
2023/07/01 12:28:48;;;;;;;14.10;12.70;;;24.80;64.60;;;;;;222637;1260;22530;-51
2023/07/01 12:33:52;;;;;;;13.40;12.20;;;24.80;65.00;;;;;;222652;1266;22517;-48
2023/07/01 12:38:58;;;;;;;14.10;12.70;;;24.90;65.60;;;;;;222417;1257;22504;-49
2023/07/01 12:44:04;;;;;;;14.30;12.90;;;24.70;65.10;;;;;;222387;1260;22510;-51
2023/07/01 12:49:13;;;;;;;14.10;12.70;;;24.80;65.40;;;;;;222393;1254;22634;-54
2023/07/01 12:54:17;;;;;;;14.50;13.10;;;24.90;64.60;;;;;;222654;1253;24378;-53
2023/07/01 12:59:22;;;;;;;13.30;12.00;;;24.80;64.00;;;;;;222527;1260;25236;-50
2023/07/01 13:04:26;;;;;;;14.30;12.80;;;24.80;64.00;;;;;;222133;1264;22512;-48
2023/07/01 13:09:44;;;;;;;14.70;12.50;;;24.90;64.20;;;;;;222423;1254;22589;-47
2023/07/01 13:14:49;;;;;;;14.00;12.60;;;24.80;63.80;;;;;;222259;1261;25689;-53
2023/07/01 13:19:53;;;;;;;14.10;12.70;;;25.00;63.80;;;;;;222627;1266;22507;-54
2023/07/01 13:24:57;;;;;;;13.70;12.40;;;24.90;63.70;;;;;;222656;1263;22518;-50
2023/07/01 13:30:06;;;;;;;13.40;11.90;;;24.80;63.90;;;;;;222419;1266;24233;-48
2023/07/01 13:35:14;;;;;;;12.10;11.00;;;24.90;63.90;;;;;;222666;1263;22517;-49
2023/07/01 13:40:23;;;;;;;12.60;11.40;;;24.90;64.40;;;;;;222693;1254;22669;-49
2023/07/01 13:45:28;;;;;;;17.10;11.20;;;24.70;64.00;;;;;;222439;1263;24244;-47
2023/07/01 13:50:37;;;;;;;12.60;11.40;;;24.70;64.40;;;;;;222442;1256;22521;-52
2023/07/01 13:55:42;;;;;;;12.30;11.20;;;24.90;63.90;;;;;;222585;1257;24180;-49
2023/07/01 14:00:50;;;;;;;12.90;11.60;;;25.10;63.70;;;;;;222414;1254;23878;-51
2023/07/01 14:05:55;;;;;;;13.00;11.20;;;25.00;65.70;;;;;;222745;1253;22615;-48
2023/07/01 14:11:00;;;;;;;12.80;11.50;;;25.00;67.10;;;;;;222551;1260;22503;-49
2023/07/01 14:16:04;;;;;;;12.60;11.20;;;24.90;68.20;;;;;;222309;1253;234408;-50
2023/07/01 14:21:09;;;;;;;13.30;12.00;;;25.10;68.30;;;;;;222667;1261;24174;-52
2023/07/01 14:26:28;;;;;;;12.40;11.10;;;25.10;68.30;;;;;;222475;1257;22611;-53
2023/07/01 14:31:33;;;;;;;12.20;11.10;;;25.20;68.50;;;;;;222411;1260;22510;-51
2023/07/01 14:36:45;;;;;;;12.60;11.40;;;25.30;68.20;;;;;;222468;1254;22721;-51
2023/07/01 14:41:50;;;;;;;12.30;11.10;;;25.30;68.20;;;;;;222436;1253;22525;-52
2023/07/01 14:46:57;;;;;;;11.90;10.80;;;25.30;68.40;;;;;;222359;1267;22684;-52
2023/07/01 14:52:02;;;;;;;11.10;10.10;;;25.30;67.90;;;;;;222500;1263;22507;-53
2023/07/01 14:57:06;;;;;;;14.90;11.60;;;25.30;67.80;;;;;;222477;1254;22521;-53
2023/07/01 15:02:11;;;;;;;12.40;11.10;;;25.20;67.90;;;;;;222333;1256;24330;-52
2023/07/01 15:07:16;;;;;;;12.10;11.00;;;25.30;67.50;;;;;;222515;1260;25326;-52
2023/07/01 15:12:21;;;;;;;12.60;11.40;;;25.30;67.30;;;;;;222729;1261;24368;-55
2023/07/01 15:17:25;;;;;;;11.80;10.80;;;25.30;67.00;;;;;;222263;1254;24143;-50
2023/07/01 15:22:29;;;;;;;12.30;11.20;;;25.40;66.90;;;;;;222322;1253;22508;-52
2023/07/01 15:27:33;;;;;;;12.00;10.80;;;25.30;66.80;;;;;;221894;1254;22495;-52
2023/07/01 15:32:37;;;;;;;12.60;11.40;;;25.40;66.80;;;;;;222435;1260;23942;-49
2023/07/01 15:37:41;;;;;;;12.20;11.10;;;25.40;66.50;;;;;;222438;1254;22510;-51
2023/07/01 15:42:47;;;;;;;11.30;10.30;;;25.40;66.70;;;;;;222423;1268;22525;-51
2023/07/01 15:47:51;;;;;;;9.80;8.90;;;25.40;65.40;;;;;;222541;1254;25332;-52
2023/07/01 15:52:55;;;;;;;9.10;7.10;;;25.30;64.20;;;;;;222643;1260;22545;-50
2023/07/01 15:57:59;;;;;;;6.30;5.70;;;25.30;62.20;;;;;;222500;1260;25255;-55
2023/07/01 16:03:04;;;;;;;5.40;4.90;;;25.20;60.00;;;;;;222282;1259;22508;-53
2023/07/01 16:08:12;;;;;;;6.90;4.80;;;25.20;58.50;;;;;;222470;1257;25207;-51
2023/07/01 16:13:41;;;;;;;6.70;4.60;;;25.20;58.10;;;;;;222463;1263;22591;-51
2023/07/01 16:18:49;;;;;;;5.10;4.30;;;25.20;56.70;;;;;;222698;1260;24211;-52
2023/07/01 16:23:58;;;;;;;4.70;4.20;;;25.20;56.30;;;;;;222438;1254;24189;-49
2023/07/01 16:29:03;;;;;;;4.60;4.20;;;25.20;55.50;;;;;;222103;1254;22510;-50
2023/07/01 16:34:10;;;;;;;6.00;4.40;;;25.20;55.70;;;;;;222353;1253;22617;-49
2023/07/01 16:39:15;;;;;;;4.80;4.30;;;25.20;55.10;;;;;;222177;1260;25259;-50
2023/07/01 16:44:20;;;;;;;5.10;4.70;;;25.20;55.10;;;;;;222547;1249;24180;-49
2023/07/01 16:49:25;;;;;;;5.20;4.40;;;25.20;54.80;;;;;;222572;1266;24170;-49
2023/07/01 16:54:37;;;;;;;4.80;4.40;;;25.20;53.80;;;;;;222430;1256;23589;-51
2023/07/01 16:59:46;;;;;;;4.60;4.20;;;25.20;53.60;;;;;;222433;1254;22525;-48
2023/07/01 17:04:50;;;;;;;4.80;4.30;;;25.20;54.40;;;;;;222541;1260;22827;-50
2023/07/01 17:09:56;;;;;;;4.10;3.70;;;25.20;53.50;;;;;;222313;1268;22516;-52
2023/07/01 17:15:01;;;;;;;5.40;4.30;;;25.20;54.00;;;;;;222400;1253;22517;-49
2023/07/01 17:20:08;;;;;;;4.00;3.60;;;25.20;52.80;;;;;;222359;1263;24080;-50
2023/07/01 17:25:13;;;;;;;4.40;4.00;;;25.20;53.50;;;;;;222643;1254;25393;-50
2023/07/01 17:30:17;;;;;;;5.30;4.10;;;25.20;52.40;;;;;;222430;1260;22586;-45
2023/07/01 17:35:23;;;;;;;4.00;3.50;;;25.20;53.10;;;;;;222561;1258;22501;-48
2023/07/01 17:40:27;;;;;;;4.60;3.80;;;25.20;53.80;;;;;;222658;1254;26614;-49
2023/07/01 17:45:32;;;;;;;5.80;4.40;;;25.20;53.10;;;;;;222568;1266;25383;-49
2023/07/01 17:50:36;;;;;;;4.90;4.50;;;25.20;54.60;;;;;;222539;1265;24209;-49
2023/07/01 17:55:41;;;;;;;4.50;4.20;;;25.10;54.30;;;;;;222610;1247;24372;-47
2023/07/01 18:00:49;;;;;;;5.30;4.80;;;25.20;55.00;;;;;;222546;1268;22780;-49
2023/07/01 18:05:54;;;;;;;5.20;3.80;;;25.20;55.30;;;;;;222551;1257;22504;-53
2023/07/01 18:10:58;;;;;;;4.80;3.80;;;25.20;54.40;;;;;;222446;1260;22559;-51
2023/07/01 18:16:03;;;;;;;6.00;4.30;;;25.20;54.40;;;;;;222403;1261;23103;-49
2023/07/01 18:21:08;;;;;;;4.90;4.50;;;25.30;55.10;;;;;;222521;1256;24056;-49
2023/07/01 18:26:12;;;;;;;4.40;4.00;;;25.20;55.50;;;;;;222268;1253;23212;-49
2023/07/01 18:31:17;;;;;;;5.40;4.30;;;25.20;55.50;;;;;;222429;1263;24251;-48
2023/07/01 18:36:22;;;;;;;4.80;4.40;;;25.20;55.70;;;;;;222290;1268;24282;-50
2023/07/01 18:41:27;;;;;;;4.60;4.20;;;25.20;56.90;;;;;;222468;1260;24180;-51
2023/07/01 18:46:32;;;;;;;7.50;4.10;;;25.10;57.60;;;;;;222471;1261;24215;-48
2023/07/01 18:51:36;;;;;;;7.80;4.70;;;25.10;57.90;;;;;;222668;1261;26773;-49
2023/07/01 18:56:41;;;;;;;5.10;4.30;;;25.10;57.90;;;;;;222519;1261;22515;-49
2023/07/01 19:01:45;;;;;;;5.30;4.80;;;25.10;58.20;;;;;;222754;1254;22524;-46
2023/07/01 19:06:50;;;;;;;6.20;4.60;;;25.10;58.20;;;;;;222168;1260;22509;-49
2023/07/01 19:11:55;;;;;;;5.90;4.80;;;25.10;58.60;;;;;;222406;1268;24382;-51
2023/07/01 19:17:00;;;;;;;7.20;5.20;;;25.00;59.00;;;;;;222839;1260;22511;-47
2023/07/01 19:22:18;;;;;;;11.10;5.40;;;25.00;59.70;;;;;;222625;1260;25255;-50
2023/07/01 19:27:23;;;;;;;11.10;5.80;;;25.20;59.50;;;;;;222488;1264;24182;-52
2023/07/01 19:32:28;;;;;;;15.70;5.20;;;25.40;60.10;;;;;;222440;1268;24204;-53
2023/07/01 19:37:34;;;;;;;11.70;5.50;;;25.30;61.00;;;;;;222594;1263;22511;-50
2023/07/01 19:42:38;;;;;;;7.10;5.30;;;25.30;61.10;;;;;;222263;1257;22514;-50
2023/07/01 19:47:48;;;;;;;9.40;5.20;;;25.40;61.20;;;;;;222393;1266;22539;-52
2023/07/01 19:52:52;;;;;;;6.30;5.30;;;25.30;62.00;;;;;;222451;1264;24246;-51
2023/07/01 19:57:58;;;;;;;7.70;5.00;;;25.20;61.30;;;;;;222463;1265;22550;-48
2023/07/01 20:03:03;;;;;;;11.30;5.50;;;25.30;62.20;;;;;;222535;1254;24346;-52
2023/07/01 20:08:09;;;;;;;9.80;5.00;;;25.40;61.90;;;;;;222431;1254;25281;-52
2023/07/01 20:13:15;;;;;;;8.10;5.60;;;25.40;61.90;;;;;;222423;1261;23915;-49
2023/07/01 20:18:20;;;;;;;7.00;5.10;;;25.40;61.60;;;;;;222652;1247;25304;-53
2023/07/01 20:23:26;;;;;;;10.90;5.40;;;25.60;61.30;;;;;;222415;1254;22513;-52
2023/07/01 20:28:30;;;;;;;8.10;5.50;;;25.60;61.30;;;;;;222330;1264;22525;-51
2023/07/01 20:33:35;;;;;;;7.30;5.00;;;25.50;61.70;;;;;;222731;1250;24869;-53
2023/07/01 20:38:40;;;;;;;8.80;5.30;;;25.50;61.40;;;;;;222326;1261;24523;-50
2023/07/01 20:43:45;;;;;;;7.20;5.20;;;25.50;61.60;;;;;;222507;1267;25389;-54
2023/07/01 20:48:50;;;;;;;8.60;6.20;;;25.40;62.60;;;;;;222304;1261;22518;-49
2023/07/01 20:53:55;;;;;;;6.80;5.60;;;25.30;64.60;;;;;;222617;1267;22525;-48
2023/07/01 20:59:00;;;;;;;7.10;5.70;;;25.30;63.90;;;;;;222233;1261;22536;-51
2023/07/01 21:04:04;;;;;;;7.00;6.00;;;25.20;65.50;;;;;;222173;1268;25593;-46
2023/07/01 21:09:16;;;;;;;7.00;5.20;;;25.20;65.20;;;;;;222301;1266;22514;-48
2023/07/01 21:14:21;;;;;;;7.10;5.70;;;25.20;64.40;;;;;;222151;1254;22497;-49
2023/07/01 21:19:26;;;;;;;12.70;6.20;;;25.40;65.60;;;;;;222485;1257;24209;-52
2023/07/01 21:24:30;;;;;;;12.10;6.20;;;25.40;64.70;;;;;;222191;1261;22530;-52
2023/07/01 21:29:35;;;;;;;7.10;5.70;;;25.40;65.40;;;;;;222291;1268;22518;-53
2023/07/01 21:34:39;;;;;;;10.20;6.10;;;25.40;65.30;;;;;;222436;1267;23013;-46
2023/07/01 21:39:43;;;;;;;8.70;6.40;;;25.40;68.70;;;;;;222362;1261;22518;-46
2023/07/01 21:44:47;;;;;;;8.30;6.60;;;25.40;67.40;;;;;;222419;1254;22525;-47
2023/07/01 21:49:51;;;;;;;10.30;5.90;;;25.50;66.20;;;;;;222327;1254;24178;-44
2023/07/01 21:54:56;;;;;;;7.60;6.40;;;25.50;65.40;;;;;;222236;1255;22523;-50
2023/07/01 22:00:03;;;;;;;9.90;6.60;;;25.40;66.40;;;;;;222306;1260;24343;-45
2023/07/01 22:05:11;;;;;;;8.00;6.30;;;25.50;65.60;;;;;;222381;1261;22633;-47
2023/07/01 22:10:15;;;;;;;6.30;5.50;;;25.40;65.50;;;;;;222170;1257;22602;-45
2023/07/01 22:15:19;;;;;;;9.20;6.50;;;25.40;64.90;;;;;;222377;1260;25633;-46
2023/07/01 22:20:23;;;;;;;10.40;6.10;;;25.40;65.70;;;;;;222334;1261;22518;-46
2023/07/01 22:25:27;;;;;;;7.10;5.80;;;25.40;65.20;;;;;;222434;1258;25210;-46
2023/07/01 22:30:32;;;;;;;8.40;6.40;;;25.40;65.40;;;;;;222168;1266;25471;-48
2023/07/01 22:35:36;;;;;;;6.70;5.90;;;25.40;65.50;;;;;;222319;1261;25314;-45
2023/07/01 22:40:40;;;;;;;7.00;6.00;;;25.40;65.30;;;;;;222118;1254;24287;-45
2023/07/01 22:45:44;;;;;;;6.70;6.00;;;25.40;65.80;;;;;;222413;1261;23940;-46
2023/07/01 22:50:48;;;;;;;6.20;5.60;;;25.40;65.10;;;;;;222460;1264;25330;-46
2023/07/01 22:55:54;;;;;;;7.80;6.20;;;25.40;65.00;;;;;;222331;1261;24273;-46
2023/07/01 23:00:58;;;;;;;6.50;5.40;;;25.50;64.50;;;;;;222505;1261;22557;-46
2023/07/01 23:06:02;;;;;;;6.00;5.50;;;25.40;64.50;;;;;;222474;1260;25463;-47
2023/07/01 23:11:13;;;;;;;7.70;5.90;;;25.40;64.80;;;;;;222249;1253;22646;-47
2023/07/01 23:16:18;;;;;;;6.50;5.90;;;25.40;64.80;;;;;;222348;1264;24229;-47
2023/07/01 23:21:22;;;;;;;5.60;5.10;;;25.40;64.80;;;;;;222368;1255;24259;-45
2023/07/01 23:26:28;;;;;;;7.10;6.30;;;25.40;64.70;;;;;;222593;1263;22514;-45
2023/07/01 23:31:32;;;;;;;6.50;5.90;;;25.30;64.80;;;;;;222313;1255;22659;-47
2023/07/01 23:36:36;;;;;;;5.60;5.20;;;25.40;64.50;;;;;;222163;1261;25211;-43
2023/07/01 23:41:41;;;;;;;11.80;5.60;;;25.30;64.60;;;;;;223006;1260;22521;-46
2023/07/01 23:46:46;;;;;;;10.10;5.90;;;25.50;64.70;;;;;;222345;1260;24196;-46
2023/07/01 23:51:50;;;;;;;26.20;8.70;;;25.30;64.70;;;;;;222481;1262;22528;-46
2023/07/01 23:56:54;;;;;;;7.40;5.50;;;25.30;64.70;;;;;;222323;1261;22520;-44
